Time;durP1;ratioP1;P1;durP2;ratioP2;P2;SDS_P1;SDS_P2;PMS_P1;PMS_P2;Temp;Humidity;BMP_temperature;BMP_pressure;BME280_temperature;BME280_humidity;BME280_pressure;Samples;Min_cycle;Max_cycle;Signal;HPM_P1;HPM_P2
2022/12/09 00:00:27;;;;;;;;;52.75;42.75;;;;;5.09;70.77;100268.50;5066991;27;45523;-62
2022/12/09 00:02:52;;;;;;;;;50.25;39.25;;;;;5.02;70.91;100256.25;5086775;27;46099;-67
2022/12/09 00:05:18;;;;;;;;;54.25;44.25;;;;;5.12;70.78;100272.00;5053600;27;45517;-64
2022/12/09 00:07:43;;;;;;;;;50.25;38.75;;;;;5.11;71.00;100258.16;5055096;28;45481;-65
2022/12/09 00:10:09;;;;;;;;;46.00;37.25;;;;;5.13;71.14;100260.78;5057176;28;45610;-66
2022/12/09 00:12:35;;;;;;;;;49.00;38.00;;;;;5.07;71.12;100252.03;5055698;27;45464;-68
2022/12/09 00:15:00;;;;;;;;;52.50;39.00;;;;;4.88;71.02;100218.81;5054489;27;46221;-63
2022/12/09 00:17:26;;;;;;;;;46.75;36.50;;;;;5.12;70.73;100246.03;5052624;27;45495;-63
2022/12/09 00:19:51;;;;;;;;;45.00;32.75;;;;;5.10;71.33;100252.09;5054828;28;45478;-75
2022/12/09 00:22:17;;;;;;;;;49.75;36.75;;;;;5.10;71.06;100243.41;5088709;27;45537;-63
2022/12/09 00:24:42;;;;;;;;;46.50;35.25;;;;;5.13;70.96;100242.63;5052688;28;45752;-63
2022/12/09 00:27:08;;;;;;;;;41.00;34.75;;;;;5.22;70.60;100253.13;5063938;27;46571;-68
2022/12/09 00:29:34;;;;;;;;;49.00;33.00;;;;;5.16;69.96;100246.13;5067872;27;45448;-63
2022/12/09 00:31:59;;;;;;;;;39.25;32.75;;;;;5.20;70.44;100250.50;5068779;27;45431;-62
2022/12/09 00:34:25;;;;;;;;;41.25;31.50;;;;;5.16;70.71;100242.66;5070052;27;47732;-66
2022/12/09 00:36:50;;;;;;;;;42.75;34.00;;;;;5.21;70.31;100246.19;5087295;27;45869;-63
2022/12/09 00:39:16;;;;;;;;;44.75;32.50;;;;;5.16;70.35;100230.53;5069589;27;45520;-64
2022/12/09 00:41:41;;;;;;;;;37.50;31.00;;;;;5.17;70.35;100241.78;5069925;27;45511;-65
2022/12/09 00:44:08;;;;;;;;;48.25;34.25;;;;;5.16;70.72;100224.47;5053742;27;46738;-62
2022/12/09 00:46:34;;;;;;;;;46.25;32.50;;;;;5.12;70.08;100220.94;5069109;27;45482;-63
2022/12/09 00:48:59;;;;;;;;;36.00;28.00;;;;;5.05;70.61;100229.47;5075398;27;45714;-65
2022/12/09 00:51:25;;;;;;;;;46.25;34.25;;;;;5.03;70.62;100229.47;5073656;27;45504;-64
2022/12/09 00:53:54;;;;;;;;;37.75;32.00;;;;;5.05;70.93;100235.56;5072349;27;45914;-63
2022/12/09 00:56:27;;;;;;;;;42.75;33.00;;;;;5.04;70.42;100233.81;5072802;27;45787;-66
2022/12/09 00:58:53;;;;;;;;;36.25;31.25;;;;;4.96;71.69;100213.75;5070237;27;45525;-63
2022/12/09 01:01:19;;;;;;;;;39.00;32.25;;;;;5.09;71.10;100210.53;5069253;27;45426;-62
2022/12/09 01:03:44;;;;;;;;;35.75;30.50;;;;;5.13;70.98;100217.53;5067996;27;46902;-63
2022/12/09 01:06:15;;;;;;;;;40.25;33.25;;;;;5.14;70.81;100215.78;5068247;27;45706;-66
2022/12/09 01:08:41;;;;;;;;;42.00;34.00;;;;;5.17;70.67;100221.03;5062406;27;46201;-63
2022/12/09 01:11:08;;;;;;;;;43.25;35.25;;;;;5.13;70.69;100201.06;5052957;28;45827;-69
2022/12/09 01:13:34;;;;;;;;;47.25;35.75;;;;;5.14;70.55;100216.66;5051482;27;46288;-65
2022/12/09 01:15:59;;;;;;;;;49.50;39.50;;;;;5.17;70.80;100214.09;5057251;27;45467;-63
2022/12/09 01:18:25;;;;;;;;;50.25;39.75;;;;;5.12;70.78;100200.19;5086734;27;45679;-62
2022/12/09 01:20:58;;;;;;;;;47.75;39.00;;;;;5.13;71.20;100209.72;5055534;27;45641;-62
2022/12/09 01:23:23;;;;;;;;;53.00;40.75;;;;;5.08;71.07;100199.28;5059893;28;45607;-66
2022/12/09 01:25:49;;;;;;;;;52.75;41.75;;;;;5.08;71.67;100211.38;5056185;27;45412;-62
2022/12/09 01:28:15;;;;;;;;;51.00;39.50;;;;;5.10;71.96;100215.75;5055687;27;45333;-64
2022/12/09 01:30:43;;;;;;;;;44.50;34.50;;;;;5.02;71.79;100193.09;5059806;27;45302;-62
2022/12/09 01:33:09;;;;;;;;;42.75;34.00;;;;;5.16;71.63;100208.91;5059752;27;45425;-62
2022/12/09 01:35:39;;;;;;;;;47.50;38.50;;;;;5.21;72.35;100202.06;5057378;27;45275;-62
2022/12/09 01:38:04;;;;;;;;;52.50;38.75;;;;;5.19;72.44;100204.63;5055876;27;45482;-63
2022/12/09 01:40:30;;;;;;;;;53.75;41.75;;;;;5.28;71.95;100214.28;5056624;27;45460;-66
2022/12/09 01:42:56;;;;;;;;;58.75;43.75;;;;;5.30;72.11;100218.63;5061960;27;47589;-63
2022/12/09 01:45:22;;;;;;;;;52.00;39.00;;;;;5.31;72.40;100214.31;5059980;27;45391;-67
2022/12/09 01:47:56;;;;;;;;;55.25;43.00;;;;;5.16;72.15;100186.41;5058100;27;45900;-65
2022/12/09 01:50:26;;;;;;;;;51.75;38.00;;;;;5.29;72.32;100222.09;5054646;27;45872;-66
2022/12/09 01:52:52;;;;;;;;;53.75;39.75;;;;;4.98;72.00;100148.03;5074134;27;45497;-66
2022/12/09 01:55:18;;;;;;;;;52.75;38.75;;;;;5.26;71.82;100198.66;5056907;27;45460;-66
2022/12/09 01:57:45;;;;;;;;;47.75;33.50;;;;;5.38;72.09;100210.94;5054188;27;45720;-62
2022/12/09 02:00:12;;;;;;;;;54.00;37.75;;;;;5.41;71.59;100208.44;5071134;27;45557;-66
2022/12/09 02:02:39;;;;;;;;;47.25;35.50;;;;;5.47;71.66;100207.63;5068262;27;48041;-63
2022/12/09 02:05:06;;;;;;;;;52.00;36.50;;;;;5.41;71.70;100191.94;5088243;27;45452;-64
2022/12/09 02:07:33;;;;;;;;;55.75;40.25;;;;;5.44;71.89;100198.06;5064362;27;45533;-67
2022/12/09 02:09:59;;;;;;;;;50.75;38.00;;;;;5.52;71.45;100204.22;5091262;27;45579;-63
2022/12/09 02:12:42;;;;;;;;;52.50;38.50;;;;;5.52;71.74;100201.63;5074225;27;46533;-63
2022/12/09 02:15:17;;;;;;;;;46.75;35.75;;;;;5.64;71.13;100218.25;5076157;27;45985;-66
2022/12/09 02:17:58;;;;;;;;;43.00;34.25;;;;;5.65;71.08;100207.03;5079426;27;45476;-70
2022/12/09 02:20:30;;;;;;;;;49.00;39.25;;;;;5.65;70.63;100202.69;5076267;27;45487;-67
2022/12/09 02:23:21;;;;;;;;;46.75;36.75;;;;;5.68;71.04;100207.91;5069529;27;46734;-64
2022/12/09 02:25:47;;;;;;;;;56.25;41.25;;;;;5.67;70.84;100205.28;5073456;27;45496;-65
2022/12/09 02:28:30;;;;;;;;;56.25;39.25;;;;;5.62;70.68;100196.56;5079923;27;45448;-75
2022/12/09 02:31:18;;;;;;;;;54.25;39.75;;;;;5.63;70.72;100196.59;5077307;27;45481;-66
2022/12/09 02:33:58;;;;;;;;;57.50;41.75;;;;;5.64;71.05;100200.94;5076079;27;46089;-70
2022/12/09 02:36:28;;;;;;;;;45.75;33.25;;;;;5.41;70.76;100155.59;5090765;27;45527;-71
2022/12/09 02:38:57;;;;;;;;;51.25;38.50;;;;;5.64;70.90;100187.94;5075603;27;45465;-66
2022/12/09 02:41:26;;;;;;;;;52.00;40.00;;;;;5.61;70.46;100180.13;5087775;27;45606;-69
2022/12/09 02:44:01;;;;;;;;;46.75;36.00;;;;;5.53;71.03;100164.44;5077261;28;46231;-68
2022/12/09 02:46:28;;;;;;;;;51.50;37.25;;;;;5.67;71.11;100187.09;5079460;27;45435;-68
2022/12/09 02:48:57;;;;;;;;;48.50;37.25;;;;;5.63;70.69;100177.56;5078090;27;45547;-67
2022/12/09 02:51:27;;;;;;;;;54.00;36.75;;;;;5.68;70.63;100186.28;5078958;27;45381;-64
2022/12/09 02:53:58;;;;;;;;;51.50;36.25;;;;;5.68;70.97;100184.53;5069135;28;45522;-66
2022/12/09 02:56:25;;;;;;;;;46.00;36.00;;;;;5.61;70.59;100168.84;5073616;27;45472;-63
2022/12/09 02:58:51;;;;;;;;;50.25;36.25;;;;;5.51;70.35;100163.53;5073974;27;45665;-64
2022/12/09 03:01:54;;;;;;;;;49.50;35.75;;;;;5.63;70.78;100188.81;5056528;27;45708;-63
2022/12/09 03:04:39;;;;;;;;;54.50;39.50;;;;;5.63;70.43;100187.94;5054652;27;45650;-64
2022/12/09 03:07:45;;;;;;;;;59.75;41.75;;;;;5.62;70.31;100191.38;5051988;28;45640;-64
2022/12/09 03:10:47;;;;;;;;;53.50;39.25;;;;;5.55;70.20;100193.00;5069245;28;45513;-62
2022/12/09 03:13:52;;;;;;;;;52.50;39.00;;;;;5.58;70.44;100192.22;5062229;27;45439;-62
2022/12/09 03:16:46;;;;;;;;;49.50;39.75;;;;;5.58;69.76;100184.41;5074033;27;47094;-63
2022/12/09 03:19:20;;;;;;;;;46.50;36.00;;;;;5.48;70.22;100183.38;5073042;28;45360;-68
2022/12/09 03:21:50;;;;;;;;;50.00;34.00;;;;;5.46;70.33;100175.59;5074486;27;45624;-65
2022/12/09 03:24:39;;;;;;;;;52.25;35.75;;;;;5.41;70.49;100169.47;5074940;28;46159;-64
2022/12/09 03:27:13;;;;;;;;;49.75;34.75;;;;;5.38;69.91;100158.16;5077914;28;45682;-62
2022/12/09 03:29:47;;;;;;;;;47.75;34.00;;;;;5.43;69.85;100170.34;5067966;28;45402;-63
2022/12/09 03:32:16;;;;;;;;;49.75;35.75;;;;;5.50;69.78;100182.59;5069731;28;45493;-71
2022/12/09 03:34:54;;;;;;;;;40.50;34.00;;;;;5.48;69.41;100179.09;5097770;27;45504;-64
2022/12/09 03:37:20;;;;;;;;;44.00;33.00;;;;;5.44;69.74;100174.69;5077143;28;47719;-66
2022/12/09 03:39:51;;;;;;;;;50.25;38.25;;;;;5.42;69.03;100173.78;5077553;27;45460;-64
2022/12/09 03:42:25;;;;;;;;;41.50;33.75;;;;;5.26;69.55;100164.03;5074453;28;45505;-66
2022/12/09 03:44:57;;;;;;;;;46.25;34.00;;;;;5.19;69.33;100147.50;5077790;28;45475;-72
2022/12/09 03:47:23;;;;;;;;;36.50;31.50;;;;;5.21;70.11;100151.00;5093375;27;46300;-69
2022/12/09 03:49:48;;;;;;;;;42.75;34.00;;;;;5.30;69.36;100156.31;5076992;28;45472;-63
2022/12/09 03:52:17;;;;;;;;;42.25;32.50;;;;;5.38;68.84;100156.41;5093793;27;45454;-67
2022/12/09 03:54:45;;;;;;;;;50.25;35.75;;;;;5.29;68.95;100153.69;5078813;28;45440;-68
2022/12/09 03:57:14;;;;;;;;;47.75;36.00;;;;;5.15;69.62;100155.22;5078159;27;45572;-67
2022/12/09 03:59:42;;;;;;;;;41.25;33.50;;;;;5.22;69.05;100159.66;5090494;27;45506;-65
2022/12/09 04:02:08;;;;;;;;;41.50;32.75;;;;;5.23;69.84;100156.22;5074014;27;45901;-66
2022/12/09 04:04:39;;;;;;;;;39.25;32.50;;;;;5.29;69.17;100153.69;5061259;28;45717;-62
2022/12/09 04:07:05;;;;;;;;;44.25;31.00;;;;;5.28;69.36;100150.22;5074056;27;46574;-63
2022/12/09 04:09:31;;;;;;;;;35.00;30.00;;;;;5.31;69.34;100144.19;5078323;27;45392;-64
2022/12/09 04:11:56;;;;;;;;;34.75;30.50;;;;;5.19;69.32;100115.47;5076416;28;45523;-64
2022/12/09 04:14:22;;;;;;;;;34.50;24.25;;;;;5.27;68.86;100119.94;5074526;28;45555;-68
2022/12/09 04:16:47;;;;;;;;;42.25;32.00;;;;;5.35;68.39;100133.00;5073387;28;45589;-63
2022/12/09 04:19:13;;;;;;;;;37.50;31.00;;;;;5.40;68.38;100140.88;5074187;28;45711;-63
2022/12/09 04:21:38;;;;;;;;;35.25;31.75;;;;;5.38;68.89;100135.63;5073765;28;45329;-68
2022/12/09 04:24:04;;;;;;;;;42.25;31.50;;;;;5.40;68.27;100127.88;5073734;27;45603;-62
2022/12/09 04:26:30;;;;;;;;;39.75;29.75;;;;;5.41;68.38;100129.63;5073754;27;45412;-62
2022/12/09 04:28:55;;;;;;;;;39.50;32.00;;;;;5.47;68.17;100134.91;5076974;27;45387;-65
2022/12/09 04:31:21;;;;;;;;;38.50;30.75;;;;;5.44;67.94;100130.53;5077576;28;45335;-72
2022/12/09 04:33:47;;;;;;;;;40.00;29.00;;;;;5.42;67.96;100124.44;5073377;28;45474;-63
2022/12/09 04:36:18;;;;;;;;;33.25;26.00;;;;;5.44;68.11;100135.75;5106079;27;45551;-65
2022/12/09 04:38:45;;;;;;;;;44.25;32.50;;;;;5.44;68.08;100135.75;5071031;28;45480;-63
2022/12/09 04:41:11;;;;;;;;;41.00;32.00;;;;;5.39;67.74;100132.22;5076328;27;45451;-63
2022/12/09 04:43:37;;;;;;;;;43.75;31.00;;;;;5.39;68.39;100131.34;5072599;28;45555;-67
2022/12/09 04:46:06;;;;;;;;;37.25;31.75;;;;;5.34;67.63;100139.06;5073485;28;46327;-63
2022/12/09 04:48:32;;;;;;;;;48.00;36.00;;;;;5.36;67.40;100141.66;5073398;28;45389;-63
2022/12/09 04:50:58;;;;;;;;;45.25;36.25;;;;;5.22;67.28;100134.59;5106511;27;45833;-63
2022/12/09 04:53:25;;;;;;;;;43.00;35.00;;;;;5.15;67.61;100147.44;5071735;28;45914;-67
2022/12/09 04:56:11;;;;;;;;;38.75;32.25;;;;;5.05;68.68;100126.56;5076496;28;46574;-63
2022/12/09 04:58:37;;;;;;;;;37.50;30.75;;;;;5.06;68.47;100130.88;5077764;28;45365;-62
2022/12/09 05:01:08;;;;;;;;;36.50;31.25;;;;;5.09;68.02;100122.25;5081194;28;45613;-65
2022/12/09 05:03:33;;;;;;;;;32.50;26.75;;;;;5.18;68.04;100139.72;5092320;27;45362;-64
2022/12/09 05:06:02;;;;;;;;;43.25;31.50;;;;;5.18;67.19;100135.38;5071768;28;45485;-62
2022/12/09 05:08:27;;;;;;;;;37.00;32.25;;;;;5.18;67.61;100142.31;5077509;28;45563;-65
2022/12/09 05:10:53;;;;;;;;;35.75;24.75;;;;;5.14;67.92;100136.19;5076634;27;45534;-64
2022/12/09 05:13:18;;;;;;;;;28.75;25.25;;;;;5.20;67.04;100140.59;5076680;27;45901;-63
2022/12/09 05:15:44;;;;;;;;;44.00;36.00;;;;;5.19;66.87;100149.22;5077682;28;46333;-63
2022/12/09 05:18:10;;;;;;;;;45.25;33.75;;;;;5.00;65.98;100137.69;5080773;28;45520;-63
2022/12/09 05:20:38;;;;;;;;;38.75;33.00;;;;;4.75;66.27;100139.94;5078259;28;45381;-63
2022/12/09 05:23:03;;;;;;;;;38.75;33.25;;;;;4.55;67.83;100129.22;5076814;28;45432;-62
2022/12/09 05:25:29;;;;;;;;;36.25;30.50;;;;;4.40;67.88;100108.22;5079871;27;45826;-67
2022/12/09 05:27:55;;;;;;;;;34.50;26.25;;;;;4.59;68.07;100136.19;5076349;28;45496;-70
2022/12/09 05:30:20;;;;;;;;;23.75;18.50;;;;;4.67;68.29;100132.03;5077872;28;45357;-63
2022/12/09 05:32:46;;;;;;;;;31.00;27.25;;;;;4.77;67.51;100145.13;5081383;27;45500;-61
2022/12/09 05:35:11;;;;;;;;;27.50;23.25;;;;;4.73;67.81;100135.56;5080636;28;46162;-63
2022/12/09 05:37:37;;;;;;;;;28.75;22.75;;;;;4.82;67.33;100139.19;5080129;27;45448;-62
2022/12/09 05:40:03;;;;;;;;;36.50;29.00;;;;;4.83;67.83;100130.53;5080655;28;45427;-64
2022/12/09 05:42:28;;;;;;;;;36.50;29.75;;;;;4.93;67.17;100141.06;5080734;28;45562;-64
2022/12/09 05:44:54;;;;;;;;;32.75;26.00;;;;;4.97;67.29;100141.13;5078999;28;45848;-66
2022/12/09 05:47:20;;;;;;;;;38.00;30.00;;;;;4.88;66.52;100136.66;5078126;28;45540;-68
2022/12/09 05:49:46;;;;;;;;;46.50;36.00;;;;;4.77;66.30;100137.34;5075876;27;45589;-64
2022/12/09 05:52:13;;;;;;;;;40.50;32.50;;;;;4.64;66.78;100157.91;5095177;27;45570;-72
2022/12/09 05:54:39;;;;;;;;;34.75;29.75;;;;;4.47;66.24;100141.19;5065807;27;46206;-62
2022/12/09 05:57:05;;;;;;;;;38.25;31.25;;;;;4.38;66.20;100146.22;5080291;28;45503;-66
2022/12/09 05:59:31;;;;;;;;;29.25;29.00;;;;;4.21;67.30;100146.78;5078546;28;45441;-62
2022/12/09 06:01:57;;;;;;;;;38.50;29.50;;;;;4.24;66.82;100151.13;5077913;28;45456;-73
2022/12/09 06:04:22;;;;;;;;;36.00;28.50;;;;;4.17;66.00;100157.94;5080124;27;45604;-69
2022/12/09 06:06:48;;;;;;;;;34.75;29.00;;;;;4.00;65.50;100136.00;5073398;28;45511;-65
2022/12/09 06:09:13;;;;;;;;;37.50;31.00;;;;;3.89;66.52;100148.78;5079248;27;45364;-61
2022/12/09 06:11:40;;;;;;;;;35.50;29.00;;;;;3.81;67.13;100165.88;5075511;27;45385;-65
2022/12/09 06:14:10;;;;;;;;;38.00;30.50;;;;;3.72;66.32;100168.28;5074863;28;46529;-64
2022/12/09 06:16:36;;;;;;;;;28.50;26.25;;;;;3.57;67.24;100161.94;5075723;27;45306;-65
2022/12/09 06:19:03;;;;;;;;;32.75;23.25;;;;;3.54;67.16;100166.19;5075749;27;45896;-63
2022/12/09 06:21:29;;;;;;;;;34.00;30.75;;;;;3.55;67.19;100173.97;5076340;28;45465;-69
2022/12/09 06:23:55;;;;;;;;;37.75;27.75;;;;;3.54;67.48;100181.72;5075252;27;45974;-73
2022/12/09 06:26:29;;;;;;;;;34.00;30.50;;;;;3.52;67.75;100180.81;5076057;28;45497;-63
2022/12/09 06:28:55;;;;;;;;;35.00;29.00;;;;;3.38;67.76;100178.78;5075574;27;45723;-66
2022/12/09 06:31:22;;;;;;;;;39.25;32.25;;;;;3.32;67.36;100181.25;5076616;27;45361;-71
2022/12/09 06:33:48;;;;;;;;;41.00;32.50;;;;;3.17;68.39;100175.72;5076490;27;45448;-61
2022/12/09 06:36:13;;;;;;;;;28.25;25.25;;;;;3.22;68.21;100186.16;5090742;27;46232;-62
2022/12/09 06:38:39;;;;;;;;;19.50;18.50;;;;;3.31;68.33;100184.66;5075317;28;45415;-66
2022/12/09 06:41:09;;;;;;;;;28.00;22.50;;;;;3.45;67.81;100184.09;5075408;28;45354;-63
2022/12/09 06:43:35;;;;;;;;;28.75;21.75;;;;;3.49;67.77;100184.22;5074535;28;46191;-67
2022/12/09 06:46:02;;;;;;;;;28.50;22.75;;;;;3.47;67.87;100172.94;5074764;28;45512;-69
2022/12/09 06:48:27;;;;;;;;;25.75;22.25;;;;;3.56;66.87;100173.16;5074852;28;45902;-61
2022/12/09 06:50:53;;;;;;;;;29.75;23.25;;;;;3.55;66.40;100179.16;5078826;27;45389;-71
2022/12/09 06:53:19;;;;;;;;;23.75;22.50;;;;;3.46;66.94;100181.53;5079367;28;46152;-65
2022/12/09 06:55:44;;;;;;;;;30.25;23.25;;;;;3.36;66.86;100177.00;5076040;28;45467;-62
2022/12/09 06:58:10;;;;;;;;;29.25;25.00;;;;;3.31;66.87;100178.63;5075253;27;45561;-65
2022/12/09 07:00:36;;;;;;;;;32.75;25.25;;;;;3.28;66.60;100169.06;5075934;28;45456;-67
2022/12/09 07:03:01;;;;;;;;;35.75;29.75;;;;;3.22;67.08;100175.81;5079357;27;46305;-65
2022/12/09 07:05:28;;;;;;;;;30.00;25.25;;;;;3.31;67.57;100182.06;5069729;28;46029;-74
2022/12/09 07:07:53;;;;;;;;;32.50;28.75;;;;;3.17;67.54;100175.72;5081697;27;45595;-66
2022/12/09 07:10:19;;;;;;;;;29.00;26.50;;;;;3.02;67.38;100177.97;5071701;27;45451;-66
2022/12/09 07:12:45;;;;;;;;;37.25;31.75;;;;;2.70;67.49;100134.09;5091792;27;47882;-64
2022/12/09 07:15:11;;;;;;;;;39.00;30.25;;;;;2.93;68.31;100178.59;5088292;27;45925;-64
2022/12/09 07:17:36;;;;;;;;;42.75;35.00;;;;;2.99;67.38;100194.28;5058841;27;45478;-67
2022/12/09 07:20:04;;;;;;;;;41.75;34.25;;;;;2.83;68.62;100190.44;5060977;27;45551;-64
2022/12/09 07:22:32;;;;;;;;;32.25;30.50;;;;;2.76;68.68;100184.25;5068332;27;46830;-63
2022/12/09 07:24:57;;;;;;;;;37.50;31.25;;;;;2.97;69.00;100202.00;5066374;27;45416;-62
2022/12/09 07:27:23;;;;;;;;;29.75;25.50;;;;;3.00;68.70;100184.81;5056227;27;45492;-65
2022/12/09 07:29:48;;;;;;;;;33.00;25.25;;;;;3.09;68.16;100188.47;5065420;27;45444;-63
2022/12/09 07:32:16;;;;;;;;;29.75;21.50;;;;;3.22;68.02;100188.75;5071584;27;45454;-68
2022/12/09 07:34:42;;;;;;;;;29.00;23.50;;;;;3.32;67.91;100198.47;5065257;27;45524;-62
2022/12/09 07:37:08;;;;;;;;;27.00;25.25;;;;;3.30;65.70;100190.69;5070487;27;46077;-62
2022/12/09 07:39:33;;;;;;;;;25.50;20.00;;;;;3.12;67.31;100165.25;5085436;27;44871;-61
2022/12/09 07:41:59;;;;;;;;;24.75;22.50;;;;;3.29;65.33;100201.88;5075360;27;45442;-61
2022/12/09 07:44:27;;;;;;;;;32.25;26.25;;;;;3.15;66.19;100182.56;5067522;27;45452;-73
2022/12/09 07:46:57;;;;;;;;;27.50;22.00;;;;;3.17;66.07;100197.28;5070338;27;45583;-62
2022/12/09 07:49:23;;;;;;;;;28.75;22.00;;;;;3.06;65.46;100184.94;5056144;27;45744;-62
2022/12/09 07:51:54;;;;;;;;;30.00;25.50;;;;;3.08;65.35;100214.31;5075411;27;47690;-66
2022/12/09 07:54:20;;;;;;;;;30.25;26.00;;;;;2.95;65.92;100205.41;5054218;27;45463;-61
2022/12/09 07:56:45;;;;;;;;;28.75;28.50;;;;;2.85;65.81;100188.78;5061559;27;45817;-62
2022/12/09 07:59:12;;;;;;;;;41.50;28.00;;;;;2.94;65.28;100212.28;5075328;27;45313;-65
2022/12/09 08:01:38;;;;;;;;;30.25;23.25;;;;;2.86;66.51;100218.09;5065076;27;46600;-63
2022/12/09 08:04:05;;;;;;;;;32.50;26.00;;;;;2.58;66.48;100181.19;5066997;27;45515;-62
2022/12/09 08:06:32;;;;;;;;;31.25;25.25;;;;;2.88;67.06;100229.38;5070887;27;45489;-63
2022/12/09 08:08:59;;;;;;;;;29.75;22.75;;;;;2.92;67.18;100213.97;5068484;27;45880;-69
2022/12/09 08:11:27;;;;;;;;;27.75;19.50;;;;;3.08;67.03;100219.47;5072629;27;45370;-67
2022/12/09 08:13:58;;;;;;;;;19.75;17.75;;;;;3.15;66.81;100205.84;5069999;27;45539;-64
2022/12/09 08:16:25;;;;;;;;;20.75;17.50;;;;;3.09;67.15;100172.09;5071037;28;45345;-70
2022/12/09 08:18:52;;;;;;;;;20.75;18.25;;;;;3.45;65.96;100210.88;5071929;27;45417;-62
2022/12/09 08:21:21;;;;;;;;;27.50;20.50;;;;;3.50;65.78;100209.25;5070382;28;46236;-66
2022/12/09 08:23:47;;;;;;;;;26.00;21.00;;;;;3.56;65.57;100204.22;5082419;27;45491;-62
2022/12/09 08:26:14;;;;;;;;;24.75;21.75;;;;;3.48;65.06;100182.44;5086498;27;45418;-67
2022/12/09 08:28:39;;;;;;;;;12.50;10.25;;;;;3.75;65.60;100218.44;5072719;27;45326;-71
2022/12/09 08:31:13;;;;;;;;;28.25;20.75;;;;;3.79;64.80;100222.81;5070710;27;45546;-63
2022/12/09 08:33:39;;;;;;;;;25.75;22.50;;;;;3.88;64.92;100227.34;5068917;28;45577;-62
2022/12/09 08:36:19;;;;;;;;;36.50;26.75;;;;;3.92;64.83;100228.28;5067133;27;45531;-63
2022/12/09 08:38:45;;;;;;;;;31.00;27.50;;;;;3.98;65.52;100221.47;5064307;27;45476;-63
2022/12/09 08:41:15;;;;;;;;;27.25;20.25;;;;;3.97;64.76;100211.09;5064895;28;46207;-70
2022/12/09 08:43:42;;;;;;;;;38.75;31.25;;;;;4.01;63.87;100224.16;5066139;27;45606;-70
2022/12/09 08:46:09;;;;;;;;;37.75;31.00;;;;;3.91;64.44;100226.50;5084008;27;45594;-65
2022/12/09 08:48:36;;;;;;;;;32.75;30.75;;;;;3.80;64.46;100221.13;5071901;27;45463;-68
2022/12/09 08:51:02;;;;;;;;;28.25;26.25;;;;;3.88;64.67;100229.91;5071468;27;46112;-67
2022/12/09 08:53:28;;;;;;;;;34.75;30.00;;;;;3.93;64.50;100237.78;5068283;27;45495;-67
2022/12/09 08:55:54;;;;;;;;;42.00;29.00;;;;;3.84;64.63;100235.88;5061434;27;45602;-65
2022/12/09 08:58:19;;;;;;;;;42.50;32.75;;;;;3.69;64.16;100233.84;5069487;28;45534;-67
2022/12/09 09:00:45;;;;;;;;;45.75;33.25;;;;;3.57;64.16;100231.84;5070788;28;46547;-62
2022/12/09 09:03:11;;;;;;;;;39.25;34.00;;;;;3.47;64.53;100234.22;5069518;28;45546;-64
2022/12/09 09:05:36;;;;;;;;;40.00;33.75;;;;;3.38;65.35;100227.97;5073152;27;45639;-63
2022/12/09 09:08:02;;;;;;;;;36.75;32.00;;;;;3.33;64.74;100205.41;5077407;27;45870;-62
2022/12/09 09:10:28;;;;;;;;;41.50;33.00;;;;;3.46;65.01;100228.13;5087925;27;48278;-63
2022/12/09 09:12:54;;;;;;;;;40.50;33.25;;;;;3.48;64.92;100226.47;5065831;28;45489;-62
2022/12/09 09:15:21;;;;;;;;;36.75;27.50;;;;;3.42;64.70;100205.63;5087491;27;45509;-74
2022/12/09 09:17:46;;;;;;;;;41.25;33.00;;;;;3.50;65.30;100216.16;5070799;27;45463;-68
2022/12/09 09:20:12;;;;;;;;;38.75;28.50;;;;;3.68;65.37;100231.19;5063338;28;46344;-61
2022/12/09 09:22:37;;;;;;;;;33.00;25.25;;;;;3.77;68.13;100214.16;5076342;27;45364;-70
2022/12/09 09:25:03;;;;;;;;;31.75;24.50;;;;;4.07;65.53;100228.59;5073998;27;45763;-63
2022/12/09 09:27:29;;;;;;;;;27.75;23.75;;;;;4.25;64.98;100225.50;5067905;28;45514;-67
2022/12/09 09:29:54;;;;;;;;;34.25;28.00;;;;;4.39;65.08;100229.22;5061815;27;46743;-63
2022/12/09 09:32:20;;;;;;;;;35.00;30.00;;;;;4.50;64.28;100238.91;5060991;28;45457;-67
2022/12/09 09:34:49;;;;;;;;;35.75;32.50;;;;;4.57;63.82;100241.63;5051522;28;45475;-66
2022/12/09 09:37:16;;;;;;;;;39.25;30.25;;;;;4.58;63.37;100222.66;5085415;27;45282;-62
2022/12/09 09:39:41;;;;;;;;;43.50;33.00;;;;;5.01;62.71;100232.91;5052388;28;46368;-62
2022/12/09 09:42:16;;;;;;;;;38.75;29.00;;;;;5.63;62.68;100232.97;5065279;27;45588;-62
2022/12/09 09:44:50;;;;;;;;;36.25;28.75;;;;;6.71;59.22;100226.47;5057747;27;45512;-63
2022/12/09 09:47:37;;;;;;;;;36.75;28.50;;;;;7.19;59.27;100230.38;5058126;27;45448;-62
2022/12/09 09:50:27;;;;;;;;;32.50;28.50;;;;;7.63;56.75;100216.75;5061979;27;47940;-70
2022/12/09 09:52:54;;;;;;;;;42.75;34.50;;;;;9.25;54.08;100237.19;5076513;27;45459;-71
2022/12/09 09:55:35;;;;;;;;;40.25;32.00;;;;;12.00;47.44;100208.44;5061760;27;45583;-62
2022/12/09 09:58:48;;;;;;;;;41.00;32.75;;;;;15.13;40.92;100209.69;5060590;27;45473;-65
2022/12/09 10:01:16;;;;;;;;;39.25;31.00;;;;;16.60;37.01;100199.44;5047034;27;46429;-73
2022/12/09 10:03:48;;;;;;;;;33.75;29.00;;;;;18.28;35.14;100194.53;5065055;28;45568;-72
2022/12/09 10:06:24;;;;;;;;;27.25;21.75;;;;;19.57;33.51;100198.09;5081882;28;45407;-70
2022/12/09 10:08:58;;;;;;;;;23.50;22.25;;;;;20.19;32.75;100190.03;5080214;28;45338;-63
2022/12/09 10:11:44;;;;;;;;;25.25;22.25;;;;;20.96;31.31;100187.25;5076340;28;46283;-66
2022/12/09 10:14:19;;;;;;;;;30.00;22.75;;;;;20.08;31.98;100182.59;5071410;28;45442;-65
2022/12/09 10:17:41;;;;;;;;;30.00;25.33;;;;;19.88;31.87;100180.81;5055785;27;45563;-63
2022/12/09 10:20:32;;;;;;;;;31.67;24.67;;;;;20.14;32.13;100166.31;5058059;27;45879;-61
2022/12/09 10:23:02;;;;;;;;;24.67;22.00;;;;;21.86;29.42;100173.75;5065799;27;45956;-64
2022/12/09 10:25:30;;;;;;;;;25.67;24.33;;;;;19.62;30.87;100173.97;5063523;27;45664;-61
2022/12/09 10:28:24;;;;;;;;;31.67;27.33;;;;;18.05;33.67;100180.38;5058969;27;45393;-72
2022/12/09 10:30:51;;;;;;;;;33.67;27.33;;;;;18.18;33.36;100170.19;5056110;27;45710;-78
2022/12/09 10:33:23;;;;;;;;;34.33;28.33;;;;;21.12;30.08;100168.72;5057535;27;46340;-71
2022/12/09 10:35:48;;;;;;;;;26.00;21.67;;;;;21.92;28.44;100154.75;5056280;27;45319;-77
2022/12/09 10:38:16;;;;;;;;;28.00;24.00;;;;;21.78;26.62;100162.63;5055992;27;45486;-74
2022/12/09 10:41:05;;;;;;;;;25.67;23.00;;;;;20.38;29.63;100158.97;5069836;27;45469;-62
2022/12/09 10:43:43;;;;;;;;;29.67;26.33;;;;;20.51;29.57;100156.63;5077255;28;46370;-65
2022/12/09 10:46:14;;;;;;;;;23.33;21.33;;;;;22.40;27.76;100147.69;5061714;27;45396;-65
2022/12/09 10:48:45;;;;;;;;;25.00;23.33;;;;;23.28;26.43;100134.59;5057269;27;45294;-62
2022/12/09 10:51:19;;;;;;;;;33.00;25.67;;;;;24.76;24.85;100135.03;5059708;27;45481;-64
2022/12/09 10:53:53;;;;;;;;;23.33;23.00;;;;;25.55;23.82;100103.75;5057744;27;45465;-63
2022/12/09 10:56:26;;;;;;;;;25.00;22.00;;;;;26.26;22.74;100136.28;5063732;27;45500;-64
2022/12/09 10:59:28;;;;;;;;;23.67;19.33;;;;;25.35;23.66;100139.16;5062830;27;45539;-64
2022/12/09 11:01:58;;;;;;;;;31.00;21.67;;;;;22.92;25.68;100134.94;5065043;27;45585;-64
2022/12/09 11:04:36;;;;;;;;;28.67;25.33;;;;;21.27;27.80;100135.13;5066852;28;46149;-63
2022/12/09 11:07:11;;;;;;;;;26.33;25.33;;;;;21.04;28.08;100137.13;5075460;28;45421;-63
2022/12/09 11:09:47;;;;;;;;;37.00;29.33;;;;;20.18;29.09;100141.31;5075859;27;45566;-63
2022/12/09 11:12:31;;;;;;;;;33.67;30.33;;;;;19.97;28.04;100127.25;5073347;28;45444;-64
2022/12/09 11:15:25;;;;;;;;;38.00;32.00;;;;;17.55;31.45;100132.75;5076083;28;45563;-64
2022/12/09 11:18:03;;;;;;;;;35.00;28.33;;;;;16.33;33.54;100135.97;5077617;28;45488;-65
2022/12/09 11:20:31;;;;;;;;;37.75;31.50;;;;;15.33;34.53;100137.94;5076536;27;45412;-61
2022/12/09 11:23:15;;;;;;;;;43.25;33.75;;;;;14.53;36.51;100137.31;5075423;27;45341;-62
2022/12/09 11:25:57;;;;;;;;;30.50;25.50;;;;;13.87;37.50;100128.25;5074685;27;46314;-70
2022/12/09 11:28:26;;;;;;;;;37.00;31.75;;;;;13.42;37.97;100136.19;5077239;28;45421;-66